Time;durP1;ratioP1;P1;durP2;ratioP2;P2;SDS_P1;SDS_P2;PMS_P1;PMS_P2;Temp;Humidity;BMP_temperature;BMP_pressure;BME280_temperature;BME280_humidity;BME280_pressure;Samples;Min_cycle;Max_cycle;Signal;HPM_P1;HPM_P2
2023/05/09 00:00:29;;;;;;;;;;;14.00;99.90;;;;;;5084581;28;19920;-71
2023/05/09 00:02:56;;;;;;;;;;;14.00;99.90;;;;;;5084118;28;19983;-72
2023/05/09 00:05:23;;;;;;;;;;;14.00;99.90;;;;;;5084250;28;19963;-69
2023/05/09 00:07:49;;;;;;;;;;;14.00;99.90;;;;;;5088362;28;19983;-70
2023/05/09 00:10:16;;;;;;;;;;;13.90;99.90;;;;;;5104354;28;19966;-70
2023/05/09 00:12:46;;;;;;;;;;;13.90;99.90;;;;;;5102426;28;20157;-71
2023/05/09 00:15:13;;;;;;;;;;;13.90;99.90;;;;;;5104262;28;19942;-71
2023/05/09 00:17:39;;;;;;;;;;;13.90;99.90;;;;;;5103864;28;19920;-70
2023/05/09 00:20:10;;;;;;;;;;;13.90;99.90;;;;;;5104271;28;19990;-69
2023/05/09 00:22:37;;;;;;;;;;;13.90;99.90;;;;;;5104092;28;20208;-69
2023/05/09 00:25:04;;;;;;;;;;;13.80;99.90;;;;;;5104008;28;19926;-71
2023/05/09 00:27:31;;;;;;;;;;;13.80;99.90;;;;;;5103834;28;19920;-71
2023/05/09 00:29:59;;;;;;;;;;;13.80;99.90;;;;;;5104265;28;20255;-71
2023/05/09 00:32:27;;;;;;;;;;;13.90;99.90;;;;;;5103983;28;19962;-70
2023/05/09 00:34:54;;;;;;;;;;;13.80;99.90;;;;;;5104261;28;19920;-71
2023/05/09 00:37:20;;;;;;;;;;;13.80;99.90;;;;;;5103448;28;20149;-71
2023/05/09 00:39:47;;;;;;;;;;;13.80;99.90;;;;;;5103783;28;19990;-72
2023/05/09 00:42:14;;;;;;;;;;;13.80;99.90;;;;;;5104105;28;19926;-70
2023/05/09 00:44:40;;;;;;;;;;;13.80;99.90;;;;;;5092766;28;19980;-69
2023/05/09 00:47:08;;;;;;;;;;;13.80;99.90;;;;;;5083231;28;19956;-69
2023/05/09 00:49:35;;;;;;;;;;;13.80;99.90;;;;;;5083695;28;19927;-70
2023/05/09 00:52:03;;;;;;;;;;;13.80;99.90;;;;;;5083328;28;20231;-71
2023/05/09 00:54:30;;;;;;;;;;;13.80;99.90;;;;;;5085054;28;19956;-69
2023/05/09 00:56:57;;;;;;;;;;;13.80;99.90;;;;;;5082481;28;19983;-71
2023/05/09 00:59:23;;;;;;;;;;;13.80;99.90;;;;;;5083193;28;20000;-69
2023/05/09 01:01:50;;;;;;;;;;;13.80;99.90;;;;;;5083481;28;19988;-70
2023/05/09 01:04:18;;;;;;;;;;;13.80;99.90;;;;;;5083299;28;19921;-71
2023/05/09 01:06:48;;;;;;;;;;;13.70;99.90;;;;;;5082541;28;19927;-70
2023/05/09 01:09:19;;;;;;;;;;;13.70;99.90;;;;;;5083485;28;20172;-71
2023/05/09 01:11:49;;;;;;;;;;;13.70;99.90;;;;;;5083476;28;19927;-69
2023/05/09 01:14:24;;;;;;;;;;;13.70;99.90;;;;;;5080976;28;19927;-70
2023/05/09 01:16:55;;;;;;;;;;;13.70;99.90;;;;;;5082808;28;19979;-69
2023/05/09 01:19:39;;;;;;;;;;;13.70;99.90;;;;;;5083345;28;19935;-70
2023/05/09 01:22:08;;;;;;;;;;;13.70;99.90;;;;;;5083326;28;20003;-71
2023/05/09 01:24:53;;;;;;;;;;;13.70;99.90;;;;;;5083186;28;19926;-71
2023/05/09 01:27:28;;;;;;;;;;;13.70;99.90;;;;;;5082850;28;19963;-69
2023/05/09 01:29:57;;;;;;;;;;;13.60;99.90;;;;;;5083087;28;19920;-69
2023/05/09 01:32:25;;;;;;;;;;;13.60;99.90;;;;;;5083169;28;19935;-70
2023/05/09 01:34:52;;;;;;;;;;;13.60;99.90;;;;;;5083066;28;19962;-69
2023/05/09 01:37:19;;;;;;;;;;;13.60;99.90;;;;;;5082563;28;20256;-69
2023/05/09 01:39:48;;;;;;;;;;;13.60;99.90;;;;;;5082928;28;19924;-71
2023/05/09 01:42:15;;;;;;;;;;;13.60;99.90;;;;;;5083087;28;19921;-70
2023/05/09 01:44:42;;;;;;;;;;;13.60;99.90;;;;;;5082496;28;19927;-69
2023/05/09 01:47:11;;;;;;;;;;;13.50;99.90;;;;;;5082461;28;19929;-70
2023/05/09 01:49:38;;;;;;;;;;;13.50;99.90;;;;;;5082854;28;20264;-71
2023/05/09 01:52:06;;;;;;;;;;;13.50;99.90;;;;;;5082768;28;20307;-71
2023/05/09 01:54:34;;;;;;;;;;;13.40;99.90;;;;;;5083020;28;19927;-70
2023/05/09 01:57:01;;;;;;;;;;;13.40;99.90;;;;;;5082798;28;19928;-70
2023/05/09 01:59:28;;;;;;;;;;;13.40;99.90;;;;;;5094009;28;19926;-71
2023/05/09 02:01:54;;;;;;;;;;;13.40;99.90;;;;;;5102975;28;19962;-69
2023/05/09 02:04:23;;;;;;;;;;;13.30;99.90;;;;;;5102470;28;19943;-71
2023/05/09 02:06:50;;;;;;;;;;;13.30;99.90;;;;;;5102385;28;19920;-71
2023/05/09 02:09:18;;;;;;;;;;;13.30;99.90;;;;;;5105058;28;20151;-71
2023/05/09 02:11:45;;;;;;;;;;;13.30;99.90;;;;;;5106066;28;19920;-69
2023/05/09 02:14:12;;;;;;;;;;;13.20;99.90;;;;;;5106933;28;19924;-69
2023/05/09 02:16:39;;;;;;;;;;;13.20;99.90;;;;;;5106571;28;19991;-70
2023/05/09 02:19:06;;;;;;;;;;;13.20;99.90;;;;;;5106762;28;19926;-69
2023/05/09 02:21:34;;;;;;;;;;;13.20;99.90;;;;;;5106528;28;19920;-69
2023/05/09 02:24:01;;;;;;;;;;;13.10;99.90;;;;;;5106626;28;19962;-69
2023/05/09 02:26:28;;;;;;;;;;;13.10;99.90;;;;;;5105823;28;19920;-70
2023/05/09 02:28:55;;;;;;;;;;;13.00;99.90;;;;;;5106663;28;19920;-69
2023/05/09 02:31:23;;;;;;;;;;;13.00;99.90;;;;;;5106498;28;19983;-69
2023/05/09 02:33:51;;;;;;;;;;;13.00;99.90;;;;;;5106253;28;19920;-68
2023/05/09 02:36:18;;;;;;;;;;;13.00;99.90;;;;;;5105783;28;19927;-69
2023/05/09 02:38:46;;;;;;;;;;;12.90;99.90;;;;;;5106512;28;19919;-69
2023/05/09 02:41:14;;;;;;;;;;;12.90;99.90;;;;;;5106308;28;20108;-69
2023/05/09 02:43:40;;;;;;;;;;;12.90;99.90;;;;;;5106022;28;19924;-69
2023/05/09 02:46:07;;;;;;;;;;;12.90;99.90;;;;;;5105703;28;19961;-69
2023/05/09 02:48:34;;;;;;;;;;;12.90;99.90;;;;;;5106207;28;19992;-70
2023/05/09 02:51:01;;;;;;;;;;;12.90;99.90;;;;;;5106232;28;19920;-71
2023/05/09 02:53:27;;;;;;;;;;;12.90;99.90;;;;;;5086843;28;19987;-69
2023/05/09 02:55:55;;;;;;;;;;;12.80;99.90;;;;;;5085625;28;19924;-70
2023/05/09 02:58:22;;;;;;;;;;;12.80;99.90;;;;;;5085635;28;19987;-72
2023/05/09 03:00:48;;;;;;;;;;;12.80;99.90;;;;;;5085876;28;20180;-69
2023/05/09 03:03:16;;;;;;;;;;;12.70;99.90;;;;;;5085627;28;19952;-69
2023/05/09 03:05:43;;;;;;;;;;;12.70;99.90;;;;;;5085243;28;19932;-70
2023/05/09 03:08:09;;;;;;;;;;;12.70;99.90;;;;;;5085194;28;20280;-69
2023/05/09 03:10:38;;;;;;;;;;;12.70;99.90;;;;;;5085015;28;20593;-69
2023/05/09 03:13:06;;;;;;;;;;;12.70;99.90;;;;;;5085495;28;20029;-69
2023/05/09 03:15:32;;;;;;;;;;;12.60;99.90;;;;;;5085416;28;20112;-71
2023/05/09 03:17:59;;;;;;;;;;;12.60;99.90;;;;;;5084821;28;19999;-69
2023/05/09 03:20:26;;;;;;;;;;;12.70;99.90;;;;;;5084705;28;19967;-71
2023/05/09 03:22:52;;;;;;;;;;;12.60;99.90;;;;;;5085204;28;19983;-69
2023/05/09 03:25:19;;;;;;;;;;;12.60;99.90;;;;;;5084885;28;19994;-69
2023/05/09 03:27:46;;;;;;;;;;;12.60;99.90;;;;;;5084387;28;19962;-71
2023/05/09 03:30:14;;;;;;;;;;;12.60;99.90;;;;;;5085338;28;19959;-69
2023/05/09 03:32:41;;;;;;;;;;;12.60;99.90;;;;;;5084934;28;19987;-70
2023/05/09 03:35:07;;;;;;;;;;;12.60;99.90;;;;;;5084605;28;19920;-69
2023/05/09 03:37:34;;;;;;;;;;;12.50;99.90;;;;;;5084104;28;19991;-70
2023/05/09 03:40:01;;;;;;;;;;;12.50;99.90;;;;;;5083346;28;19999;-70
2023/05/09 03:42:27;;;;;;;;;;;12.60;99.90;;;;;;5084015;28;19992;-70
2023/05/09 03:44:54;;;;;;;;;;;12.50;99.90;;;;;;5090251;28;20254;-69
2023/05/09 03:47:22;;;;;;;;;;;12.60;99.90;;;;;;5084279;28;19962;-70
2023/05/09 03:49:49;;;;;;;;;;;12.50;99.90;;;;;;5085068;28;19984;-70
2023/05/09 03:52:15;;;;;;;;;;;12.50;99.90;;;;;;5084550;28;19948;-69
2023/05/09 03:54:42;;;;;;;;;;;12.50;99.90;;;;;;5084623;28;19951;-70
2023/05/09 03:57:08;;;;;;;;;;;12.50;99.90;;;;;;5084146;28;19983;-70
2023/05/09 03:59:35;;;;;;;;;;;12.50;99.90;;;;;;5084514;28;20007;-69
2023/05/09 04:02:02;;;;;;;;;;;12.50;99.90;;;;;;5084638;28;19921;-70
2023/05/09 04:04:30;;;;;;;;;;;12.50;99.90;;;;;;5084237;28;20201;-70
2023/05/09 04:06:56;;;;;;;;;;;12.50;99.90;;;;;;5084137;28;19927;-69
2023/05/09 04:09:23;;;;;;;;;;;12.50;99.90;;;;;;5084403;28;19921;-69
2023/05/09 04:11:50;;;;;;;;;;;12.50;99.90;;;;;;5084317;28;19988;-69
2023/05/09 04:14:16;;;;;;;;;;;12.50;99.90;;;;;;5095607;28;19927;-69
2023/05/09 04:16:43;;;;;;;;;;;12.50;99.90;;;;;;5104274;28;19942;-70
2023/05/09 04:19:10;;;;;;;;;;;12.50;99.90;;;;;;5104525;28;19920;-70
2023/05/09 04:21:37;;;;;;;;;;;12.50;99.90;;;;;;5104560;28;19927;-70
2023/05/09 04:24:04;;;;;;;;;;;12.50;99.90;;;;;;5104408;28;20120;-69
2023/05/09 04:26:31;;;;;;;;;;;12.50;99.90;;;;;;5103846;28;19926;-70
2023/05/09 04:28:58;;;;;;;;;;;12.50;99.90;;;;;;5103966;28;19920;-69
2023/05/09 04:31:25;;;;;;;;;;;12.50;99.90;;;;;;5102741;28;19983;-69
2023/05/09 04:33:51;;;;;;;;;;;12.40;99.90;;;;;;5103667;28;19920;-69
2023/05/09 04:36:18;;;;;;;;;;;12.50;99.90;;;;;;5103660;28;19979;-69
2023/05/09 04:38:46;;;;;;;;;;;12.50;99.90;;;;;;5103883;28;19963;-69
2023/05/09 04:41:12;;;;;;;;;;;12.50;99.90;;;;;;5103719;28;20196;-70
2023/05/09 04:43:40;;;;;;;;;;;12.50;99.90;;;;;;5099069;28;19955;-70
2023/05/09 04:46:07;;;;;;;;;;;12.50;99.90;;;;;;5082634;28;19920;-70
2023/05/09 04:48:34;;;;;;;;;;;12.50;99.90;;;;;;5083870;28;19920;-70
2023/05/09 04:51:01;;;;;;;;;;;12.50;99.90;;;;;;5081080;28;19927;-68
2023/05/09 04:53:28;;;;;;;;;;;12.50;99.90;;;;;;5083367;28;19979;-68
2023/05/09 04:55:56;;;;;;;;;;;12.50;99.90;;;;;;5083362;28;19928;-70
2023/05/09 04:58:24;;;;;;;;;;;12.50;99.90;;;;;;5083295;28;19920;-69
2023/05/09 05:00:52;;;;;;;;;;;12.50;99.90;;;;;;5081063;28;19928;-69
2023/05/09 05:03:18;;;;;;;;;;;12.50;99.90;;;;;;5083222;28;19921;-70
2023/05/09 05:05:45;;;;;;;;;;;12.60;99.90;;;;;;5083154;28;19929;-69
2023/05/09 05:08:12;;;;;;;;;;;12.60;99.90;;;;;;5083159;28;19983;-69
2023/05/09 05:10:38;;;;;;;;;;;12.60;99.90;;;;;;5081161;28;19934;-69
2023/05/09 05:13:06;;;;;;;;;;;12.60;99.90;;;;;;5083390;28;19984;-70
2023/05/09 05:15:33;;;;;;;;;;;12.60;99.90;;;;;;5092925;28;19942;-70
2023/05/09 05:17:59;;;;;;;;;;;12.60;99.90;;;;;;5103559;28;19986;-70
2023/05/09 05:20:26;;;;;;;;;;;12.60;99.90;;;;;;5103557;28;19991;-69
2023/05/09 05:22:53;;;;;;;;;;;12.60;99.90;;;;;;5103568;28;20280;-74
2023/05/09 05:25:21;;;;;;;;;;;12.60;99.90;;;;;;5103477;28;19942;-69
2023/05/09 05:27:47;;;;;;;;;;;12.70;99.90;;;;;;5102523;28;20221;-69
2023/05/09 05:30:15;;;;;;;;;;;12.60;99.90;;;;;;5102907;28;19987;-68
2023/05/09 05:32:42;;;;;;;;;;;12.70;99.90;;;;;;5102955;28;19920;-69
2023/05/09 05:35:10;;;;;;;;;;;12.70;99.90;;;;;;5100363;28;20294;-72
2023/05/09 05:37:37;;;;;;;;;;;12.80;99.90;;;;;;5103035;28;20124;-69
2023/05/09 05:40:04;;;;;;;;;;;12.80;99.90;;;;;;5103342;28;20111;-70
2023/05/09 05:42:31;;;;;;;;;;;12.80;99.90;;;;;;5104219;28;19927;-70
2023/05/09 05:45:03;;;;;;;;;;;12.90;99.90;;;;;;5107318;28;19920;-69
2023/05/09 05:47:31;;;;;;;;;;;12.90;99.90;;;;;;5107130;28;19935;-69
2023/05/09 05:49:58;;;;;;;;;;;12.90;99.90;;;;;;5107310;28;19927;-70
2023/05/09 05:52:25;;;;;;;;;;;13.00;99.90;;;;;;5097371;28;19979;-70
2023/05/09 05:54:51;;;;;;;;;;;13.00;99.90;;;;;;5086936;28;19987;-69
2023/05/09 05:57:18;;;;;;;;;;;13.10;99.90;;;;;;5086660;28;20108;-70
2023/05/09 05:59:46;;;;;;;;;;;13.10;99.90;;;;;;5086596;28;19921;-68
2023/05/09 06:02:13;;;;;;;;;;;13.20;99.90;;;;;;5086989;28;19921;-69
2023/05/09 06:04:41;;;;;;;;;;;13.20;99.90;;;;;;5085377;28;19920;-70
2023/05/09 06:07:07;;;;;;;;;;;13.20;99.90;;;;;;5085985;28;20219;-69
2023/05/09 06:09:34;;;;;;;;;;;13.20;99.90;;;;;;5084288;28;20216;-69
2023/05/09 06:12:01;;;;;;;;;;;13.20;99.90;;;;;;5086923;28;19987;-69
2023/05/09 06:14:27;;;;;;;;;;;13.30;99.90;;;;;;5086599;28;19921;-68
2023/05/09 06:16:54;;;;;;;;;;;13.20;99.90;;;;;;5086044;28;19927;-70
2023/05/09 06:19:21;;;;;;;;;;;13.20;99.90;;;;;;5086174;28;19952;-69
2023/05/09 06:21:49;;;;;;;;;;;13.20;99.90;;;;;;5086205;28;19925;-70
2023/05/09 06:24:15;;;;;;;;;;;13.20;99.90;;;;;;5104330;28;19966;-70
2023/05/09 06:26:42;;;;;;;;;;;13.20;99.90;;;;;;5106147;28;20284;-69
2023/05/09 06:29:09;;;;;;;;;;;13.10;99.90;;;;;;5106803;28;19991;-69
2023/05/09 06:31:37;;;;;;;;;;;13.10;99.90;;;;;;5106774;28;20175;-69
2023/05/09 06:34:04;;;;;;;;;;;13.10;99.90;;;;;;5106662;28;19927;-70
2023/05/09 06:36:31;;;;;;;;;;;13.10;99.90;;;;;;5106353;28;19920;-68
2023/05/09 06:38:59;;;;;;;;;;;13.10;99.90;;;;;;5106708;28;19920;-68
2023/05/09 06:41:26;;;;;;;;;;;13.10;99.90;;;;;;5106177;28;19957;-70
2023/05/09 06:43:52;;;;;;;;;;;13.20;99.90;;;;;;5106406;28;19921;-70
2023/05/09 06:46:19;;;;;;;;;;;13.30;99.90;;;;;;5105781;28;19978;-71
2023/05/09 06:48:46;;;;;;;;;;;13.30;99.90;;;;;;5104765;28;20174;-69
2023/05/09 06:51:12;;;;;;;;;;;13.40;99.90;;;;;;5106410;28;19920;-69
2023/05/09 06:53:39;;;;;;;;;;;13.50;99.90;;;;;;5105041;28;19947;-68
2023/05/09 06:56:07;;;;;;;;;;;13.60;99.90;;;;;;5105231;28;19920;-70
2023/05/09 06:58:35;;;;;;;;;;;13.70;99.90;;;;;;5085845;28;19920;-70
2023/05/09 07:01:03;;;;;;;;;;;13.70;99.90;;;;;;5085547;28;20240;-71
2023/05/09 07:03:29;;;;;;;;;;;13.70;99.90;;;;;;5085746;28;19927;-70
2023/05/09 07:05:57;;;;;;;;;;;13.70;99.90;;;;;;5084759;28;20487;-70
2023/05/09 07:08:24;;;;;;;;;;;13.80;99.90;;;;;;5090515;28;19920;-69
2023/05/09 07:10:51;;;;;;;;;;;13.90;99.90;;;;;;5126124;28;19951;-68
2023/05/09 07:13:19;;;;;;;;;;;13.90;99.90;;;;;;5126285;28;19977;-70
2023/05/09 07:15:45;;;;;;;;;;;14.00;99.90;;;;;;5114404;28;19926;-70
2023/05/09 07:18:12;;;;;;;;;;;14.00;99.90;;;;;;5105441;28;20143;-69
2023/05/09 07:20:39;;;;;;;;;;;14.10;99.90;;;;;;5105763;28;19991;-68
2023/05/09 07:23:05;;;;;;;;;;;14.20;99.90;;;;;;5105716;28;20003;-69
2023/05/09 07:25:32;;;;;;;;;;;14.20;99.90;;;;;;5097239;28;19927;-69
2023/05/09 07:27:59;;;;;;;;;;;14.20;99.90;;;;;;5103541;28;19928;-69
2023/05/09 07:30:27;;;;;;;;;;;14.30;99.90;;;;;;5105614;28;19928;-70
2023/05/09 07:32:53;;;;;;;;;;;14.30;99.90;;;;;;5105512;28;19920;-70
2023/05/09 07:35:20;;;;;;;;;;;14.30;99.90;;;;;;5105183;28;19958;-69
2023/05/09 07:37:47;;;;;;;;;;;14.30;99.90;;;;;;5105250;28;19924;-69
2023/05/09 07:40:13;;;;;;;;;;;14.50;99.90;;;;;;5105360;28;19920;-70
2023/05/09 07:42:41;;;;;;;;;;;14.50;99.90;;;;;;5105337;28;19987;-70
2023/05/09 07:45:09;;;;;;;;;;;14.60;99.90;;;;;;5101245;28;19927;-70
2023/05/09 07:47:37;;;;;;;;;;;14.70;99.90;;;;;;5084696;28;19921;-70
2023/05/09 07:50:04;;;;;;;;;;;14.90;99.90;;;;;;5084828;28;20247;-69
2023/05/09 07:52:30;;;;;;;;;;;15.00;99.90;;;;;;5084544;28;19925;-70
2023/05/09 07:54:57;;;;;;;;;;;15.10;99.90;;;;;;5084097;28;19992;-69
2023/05/09 07:57:24;;;;;;;;;;;15.30;99.90;;;;;;5084106;28;19987;-70
2023/05/09 07:59:50;;;;;;;;;;;15.40;99.90;;;;;;5084700;28;19988;-70
2023/05/09 08:02:17;;;;;;;;;;;15.40;99.90;;;;;;5094976;28;19983;-69
2023/05/09 08:04:47;;;;;;;;;;;15.50;99.90;;;;;;5104802;28;19951;-68
2023/05/09 08:07:14;;;;;;;;;;;15.50;99.90;;;;;;5103851;28;20116;-70
2023/05/09 08:09:40;;;;;;;;;;;15.60;99.90;;;;;;5104562;28;19991;-70
2023/05/09 08:12:07;;;;;;;;;;;15.60;99.90;;;;;;5104763;28;19991;-69
2023/05/09 08:14:34;;;;;;;;;;;15.60;99.90;;;;;;5104697;28;20108;-69
2023/05/09 08:17:01;;;;;;;;;;;15.70;99.90;;;;;;5104594;28;19942;-70
2023/05/09 08:19:27;;;;;;;;;;;15.70;99.90;;;;;;5104471;28;20341;-69
2023/05/09 08:21:59;;;;;;;;;;;15.70;99.90;;;;;;5104646;28;19963;-69
2023/05/09 08:24:26;;;;;;;;;;;15.80;99.90;;;;;;5104181;28;20216;-69
2023/05/09 08:26:52;;;;;;;;;;;15.90;99.90;;;;;;5103913;28;19920;-70
2023/05/09 08:29:19;;;;;;;;;;;15.90;99.90;;;;;;5099295;28;20003;-70
2023/05/09 08:31:45;;;;;;;;;;;16.00;99.90;;;;;;5083967;28;20329;-69
2023/05/09 08:34:12;;;;;;;;;;;16.00;99.90;;;;;;5083782;28;20216;-69
2023/05/09 08:36:39;;;;;;;;;;;16.10;99.90;;;;;;5083577;28;19988;-70
2023/05/09 08:39:08;;;;;;;;;;;16.10;99.90;;;;;;5083617;28;19932;-70
2023/05/09 08:41:35;;;;;;;;;;;16.10;99.90;;;;;;5083577;28;20238;-69
2023/05/09 08:44:02;;;;;;;;;;;16.20;99.90;;;;;;5083848;28;19928;-69
2023/05/09 08:46:31;;;;;;;;;;;16.30;99.90;;;;;;5082904;28;19926;-70
2023/05/09 08:48:57;;;;;;;;;;;16.30;99.90;;;;;;5083699;28;20093;-70
2023/05/09 08:51:24;;;;;;;;;;;16.30;99.90;;;;;;5085394;28;19921;-69
2023/05/09 08:53:51;;;;;;;;;;;16.40;99.90;;;;;;5103563;28;19963;-69
2023/05/09 08:56:20;;;;;;;;;;;16.50;99.90;;;;;;5103530;28;19920;-69
2023/05/09 08:58:46;;;;;;;;;;;16.60;99.90;;;;;;5102605;28;19955;-70
2023/05/09 09:01:13;;;;;;;;;;;16.60;99.90;;;;;;5083342;28;19983;-71
2023/05/09 09:03:46;;;;;;;;;;;16.70;99.90;;;;;;5083671;28;19988;-70
2023/05/09 09:06:13;;;;;;;;;;;16.80;99.90;;;;;;5083307;28;19920;-69
2023/05/09 09:08:40;;;;;;;;;;;16.90;99.90;;;;;;5083310;28;19983;-68
2023/05/09 09:11:07;;;;;;;;;;;17.00;99.90;;;;;;5087722;28;19991;-69
2023/05/09 09:13:37;;;;;;;;;;;17.10;99.90;;;;;;5092118;28;19920;-69
2023/05/09 09:16:04;;;;;;;;;;;17.10;99.90;;;;;;5086199;28;19928;-70
2023/05/09 09:18:32;;;;;;;;;;;17.20;99.90;;;;;;5082940;28;19983;-69
2023/05/09 09:21:01;;;;;;;;;;;17.20;99.90;;;;;;5083066;28;20230;-69
2023/05/09 09:23:28;;;;;;;;;;;17.20;99.90;;;;;;5083401;28;20040;-70
2023/05/09 09:25:58;;;;;;;;;;;17.30;99.90;;;;;;5083161;28;19935;-70
2023/05/09 09:28:25;;;;;;;;;;;17.40;99.90;;;;;;5089935;28;19958;-69
2023/05/09 09:30:53;;;;;;;;;;;17.50;99.90;;;;;;5085074;28;19983;-70
2023/05/09 09:33:20;;;;;;;;;;;17.60;99.90;;;;;;5083355;28;19921;-69
2023/05/09 09:35:47;;;;;;;;;;;17.60;99.90;;;;;;5082871;28;19924;-69
2023/05/09 09:38:14;;;;;;;;;;;17.70;99.90;;;;;;5083129;28;19927;-70
2023/05/09 09:40:48;;;;;;;;;;;17.90;99.90;;;;;;5083287;28;20019;-70
2023/05/09 09:43:14;;;;;;;;;;;17.90;99.90;;;;;;5083170;28;20113;-69
2023/05/09 09:45:41;;;;;;;;;;;17.80;99.90;;;;;;5091910;28;19928;-69
2023/05/09 09:48:09;;;;;;;;;;;17.90;99.90;;;;;;5102957;28;20230;-70
2023/05/09 09:50:36;;;;;;;;;;;18.00;99.90;;;;;;5103463;28;19926;-68
2023/05/09 09:53:03;;;;;;;;;;;18.10;99.90;;;;;;5088084;28;20179;-69
2023/05/09 09:55:29;;;;;;;;;;;18.30;99.90;;;;;;5082175;28;20112;-74
2023/05/09 09:57:56;;;;;;;;;;;18.30;99.90;;;;;;5082514;28;19984;-69
2023/05/09 10:00:26;;;;;;;;;;;18.40;99.90;;;;;;5101563;28;19959;-71
2023/05/09 10:02:53;;;;;;;;;;;18.60;99.90;;;;;;5101505;28;19920;-69
2023/05/09 10:05:22;;;;;;;;;;;18.70;99.90;;;;;;5102766;28;19979;-70
2023/05/09 10:07:54;;;;;;;;;;;18.80;99.90;;;;;;5102671;28;19920;-70
2023/05/09 10:10:21;;;;;;;;;;;18.80;99.90;;;;;;5089731;28;20240;-70
2023/05/09 10:12:48;;;;;;;;;;;19.00;99.90;;;;;;5082804;28;20000;-70
2023/05/09 10:15:17;;;;;;;;;;;19.10;99.90;;;;;;5082410;28;19927;-69
2023/05/09 10:17:44;;;;;;;;;;;19.20;99.90;;;;;;5082509;28;19920;-71
2023/05/09 10:20:12;;;;;;;;;;;19.20;99.90;;;;;;5082959;28;19966;-70
2023/05/09 10:22:40;;;;;;;;;;;19.30;99.90;;;;;;5082806;28;19920;-69
2023/05/09 10:25:11;;;;;;;;;;;19.40;99.90;;;;;;5082557;28;20158;-68
2023/05/09 10:27:41;;;;;;;;;;;19.60;99.90;;;;;;5082397;28;19924;-70
2023/05/09 10:30:09;;;;;;;;;;;19.70;99.90;;;;;;5084208;28;19951;-68
2023/05/09 10:32:41;;;;;;;;;;;19.70;99.90;;;;;;5099145;28;19985;-70
2023/05/09 10:35:10;;;;;;;;;;;19.80;99.90;;;;;;5106407;28;19920;-73
2023/05/09 10:37:37;;;;;;;;;;;19.90;99.90;;;;;;5105865;28;19920;-70
2023/05/09 10:40:06;;;;;;;;;;;20.00;99.90;;;;;;5094365;28;19920;-69
2023/05/09 10:42:32;;;;;;;;;;;20.00;99.90;;;;;;5083684;28;20025;-69
2023/05/09 10:44:59;;;;;;;;;;;20.10;99.90;;;;;;5086281;28;19988;-71
2023/05/09 10:47:26;;;;;;;;;;;20.20;99.90;;;;;;5088125;28;19920;-70
2023/05/09 10:49:53;;;;;;;;;;;20.40;99.90;;;;;;5106019;28;19987;-71
2023/05/09 10:52:21;;;;;;;;;;;20.50;99.90;;;;;;5097053;28;19992;-70
2023/05/09 10:54:58;;;;;;;;;;;20.70;99.90;;;;;;5084797;28;19956;-69
2023/05/09 10:57:26;;;;;;;;;;;20.80;99.90;;;;;;5085406;28;19932;-69
2023/05/09 10:59:53;;;;;;;;;;;21.00;99.90;;;;;;5084755;28;19921;-66
2023/05/09 11:02:20;;;;;;;;;;;21.10;99.90;;;;;;5084155;28;20000;-66
2023/05/09 11:04:47;;;;;;;;;;;21.20;99.90;;;;;;5084715;28;19924;-66
2023/05/09 11:07:24;;;;;;;;;;;21.30;99.90;;;;;;5084922;28;19995;-67
2023/05/09 11:09:51;;;;;;;;;;;21.50;99.90;;;;;;5085452;28;19920;-66
2023/05/09 11:12:19;;;;;;;;;;;21.60;99.90;;;;;;5085542;28;19959;-67
2023/05/09 11:14:48;;;;;;;;;;;21.70;99.90;;;;;;5088550;28;19947;-68
2023/05/09 11:17:27;;;;;;;;;;;21.80;99.90;;;;;;5105498;28;19927;-67
2023/05/09 11:19:57;;;;;;;;;;;21.90;99.90;;;;;;5104973;28;19956;-68
2023/05/09 11:22:25;;;;;;;;;;;22.00;99.90;;;;;;5105843;28;19920;-67
2023/05/09 11:24:52;;;;;;;;;;;22.10;99.90;;;;;;5105506;28;19926;-66
2023/05/09 11:27:20;;;;;;;;;;;22.20;99.90;;;;;;5103363;28;19958;-67
2023/05/09 11:29:50;;;;;;;;;;;22.40;99.90;;;;;;5105723;28;19920;-67
2023/05/09 11:32:17;;;;;;;;;;;22.50;99.90;;;;;;5105584;28;20146;-67
2023/05/09 11:34:44;;;;;;;;;;;22.40;99.90;;;;;;5102810;28;19920;-66
2023/05/09 11:37:12;;;;;;;;;;;22.50;99.90;;;;;;5104851;28;19920;-66
2023/05/09 11:39:57;;;;;;;;;;;22.40;99.90;;;;;;5105253;28;19979;-66
2023/05/09 11:42:25;;;;;;;;;;;22.50;99.30;;;;;;5101583;28;19998;-70
2023/05/09 11:44:53;;;;;;;;;;;22.60;99.90;;;;;;5104984;28;19920;-68
2023/05/09 11:47:20;;;;;;;;;;;22.60;99.90;;;;;;5101968;28;19926;-67
2023/05/09 11:49:47;;;;;;;;;;;22.30;99.40;;;;;;5096184;28;19970;-67
2023/05/09 11:52:14;;;;;;;;;;;22.30;99.90;;;;;;5084311;28;20208;-69
2023/05/09 11:54:41;;;;;;;;;;;22.40;99.90;;;;;;5095833;28;19920;-67
2023/05/09 11:57:07;;;;;;;;;;;22.60;99.00;;;;;;5104030;28;19942;-69
2023/05/09 11:59:34;;;;;;;;;;;22.70;99.90;;;;;;5090164;28;20165;-69
2023/05/09 12:02:06;;;;;;;;;;;23.00;98.90;;;;;;5084743;28;19928;-67
2023/05/09 12:04:33;;;;;;;;;;;23.20;99.70;;;;;;5084448;28;19927;-67
2023/05/09 12:07:00;;;;;;;;;;;23.30;98.00;;;;;;5083555;28;19980;-68
2023/05/09 12:09:29;;;;;;;;;;;23.20;99.40;;;;;;5082062;28;20093;-67
2023/05/09 12:11:56;;;;;;;;;;;23.30;96.50;;;;;;5084243;28;19920;-67
2023/05/09 12:14:26;;;;;;;;;;;23.30;96.50;;;;;;5084318;28;19995;-69
2023/05/09 12:16:52;;;;;;;;;;;23.20;98.10;;;;;;5083228;28;19925;-69
2023/05/09 12:19:20;;;;;;;;;;;23.30;96.50;;;;;;5083812;28;19958;-67
2023/05/09 12:21:47;;;;;;;;;;;23.40;96.80;;;;;;5084232;28;20120;-67
2023/05/09 12:24:14;;;;;;;;;;;23.50;95.40;;;;;;5083936;28;19986;-67
2023/05/09 12:26:40;;;;;;;;;;;23.60;98.50;;;;;;5083529;28;20247;-67
2023/05/09 12:29:07;;;;;;;;;;;23.60;97.00;;;;;;5097034;28;20231;-67
2023/05/09 12:31:34;;;;;;;;;;;23.70;98.80;;;;;;5096836;28;19947;-68
2023/05/09 12:34:01;;;;;;;;;;;24.00;97.40;;;;;;5091004;28;19920;-67
2023/05/09 12:36:34;;;;;;;;;;;24.20;97.40;;;;;;5082736;28;19920;-68
2023/05/09 12:39:00;;;;;;;;;;;24.40;95.50;;;;;;5086871;28;19956;-68
2023/05/09 12:41:28;;;;;;;;;;;24.50;97.00;;;;;;5104138;28;20169;-68
2023/05/09 12:43:54;;;;;;;;;;;24.50;95.60;;;;;;5103843;28;20235;-67
2023/05/09 12:46:21;;;;;;;;;;;24.50;96.30;;;;;;5103152;28;19987;-68
2023/05/09 12:48:48;;;;;;;;;;;24.40;94.20;;;;;;5103998;28;19987;-67
2023/05/09 12:51:18;;;;;;;;;;;24.40;95.40;;;;;;5083347;28;20013;-69
2023/05/09 12:53:46;;;;;;;;;;;24.40;95.80;;;;;;5082726;28;19988;-67
2023/05/09 12:56:13;;;;;;;;;;;24.50;97.50;;;;;;5091111;28;19958;-68
2023/05/09 12:58:40;;;;;;;;;;;24.50;94.40;;;;;;5103829;28;19958;-68
2023/05/09 13:01:06;;;;;;;;;;;24.20;94.20;;;;;;5103910;28;19951;-69
2023/05/09 13:03:36;;;;;;;;;;;24.10;95.20;;;;;;5100070;28;20175;-68
2023/05/09 13:06:05;;;;;;;;;;;24.00;95.50;;;;;;5083479;28;20112;-67
2023/05/09 13:08:32;;;;;;;;;;;24.10;95.40;;;;;;5083618;28;19959;-67
2023/05/09 13:11:00;;;;;;;;;;;23.80;94.40;;;;;;5083477;28;19995;-68
2023/05/09 13:13:27;;;;;;;;;;;23.90;96.40;;;;;;5083226;28;20287;-67
2023/05/09 13:15:53;;;;;;;;;;;23.90;94.70;;;;;;5083003;28;19956;-67
2023/05/09 13:18:20;;;;;;;;;;;23.80;95.20;;;;;;5083197;28;20260;-67
2023/05/09 13:20:47;;;;;;;;;;;23.80;95.60;;;;;;5083012;28;20271;-67
2023/05/09 13:23:13;;;;;;;;;;;24.00;94.20;;;;;;5082600;28;20062;-67
2023/05/09 13:25:40;;;;;;;;;;;24.00;94.30;;;;;;5082155;28;19927;-69
2023/05/09 13:28:08;;;;;;;;;;;24.30;96.10;;;;;;5095052;28;20156;-67
2023/05/09 13:30:35;;;;;;;;;;;24.50;93.90;;;;;;5103700;28;19928;-67
2023/05/09 13:33:01;;;;;;;;;;;24.50;95.50;;;;;;5103215;28;20003;-68
2023/05/09 13:35:28;;;;;;;;;;;24.80;95.30;;;;;;5103238;28;20450;-69
2023/05/09 13:37:57;;;;;;;;;;;25.00;96.00;;;;;;5102899;28;20142;-66
2023/05/09 13:40:23;;;;;;;;;;;25.10;93.30;;;;;;5103512;28;19920;-68
2023/05/09 13:42:50;;;;;;;;;;;24.50;93.40;;;;;;5103080;28;19991;-67
2023/05/09 13:45:18;;;;;;;;;;;24.50;93.70;;;;;;5100447;28;19931;-65
2023/05/09 13:47:44;;;;;;;;;;;24.80;94.60;;;;;;5099276;28;19927;-65
2023/05/09 13:50:12;;;;;;;;;;;24.80;95.20;;;;;;5101694;28;19988;-67
2023/05/09 13:52:38;;;;;;;;;;;25.10;96.20;;;;;;5090855;28;19924;-64
2023/05/09 13:55:05;;;;;;;;;;;25.30;94.00;;;;;;5099002;28;19983;-65
2023/05/09 13:57:32;;;;;;;;;;;25.40;93.30;;;;;;5102680;28;19991;-65
2023/05/09 13:59:58;;;;;;;;;;;25.70;95.80;;;;;;5103317;28;19983;-65
2023/05/09 14:02:26;;;;;;;;;;;25.90;93.10;;;;;;5096318;28;19959;-65
2023/05/09 14:04:53;;;;;;;;;;;25.70;92.40;;;;;;5085796;28;19927;-66
2023/05/09 14:07:20;;;;;;;;;;;25.50;91.90;;;;;;5086237;28;19966;-66
2023/05/09 14:09:47;;;;;;;;;;;25.00;92.60;;;;;;5086719;28;19925;-67
2023/05/09 14:12:13;;;;;;;;;;;24.90;93.50;;;;;;5086867;28;19939;-66
2023/05/09 14:14:40;;;;;;;;;;;25.00;94.70;;;;;;5088830;28;20170;-69
2023/05/09 14:17:07;;;;;;;;;;;25.20;94.50;;;;;;5106080;28;20220;-67